createdAt,value
2023-03-11T15:24:41.738Z,98015.50
2023-03-11T15:25:50.005Z,98023.75
2023-03-11T15:27:06.980Z,98013.59
2023-03-11T15:28:28.346Z,98012.94
2023-03-11T15:29:31.865Z,98014.91
2023-03-11T15:30:33.733Z,98012.28
2023-03-11T15:31:38.502Z,98012.88
2023-03-11T15:32:42.731Z,98012.88
2023-03-11T15:33:45.902Z,98018.50
2023-03-11T15:35:14.966Z,98022.28
2023-03-11T15:36:35.234Z,98013.97
2023-03-11T15:37:39.455Z,98021.16
2023-03-11T15:38:41.306Z,98018.47
2023-03-11T15:39:46.405Z,98017.41
2023-03-11T15:41:01.385Z,98024.06
2023-03-11T15:42:22.947Z,98015.22
2023-03-11T15:43:32.787Z,98013.88
2023-03-11T15:44:59.754Z,98013.84
2023-03-11T15:46:03.397Z,98017.13
2023-03-11T15:47:05.966Z,98018.44
2023-03-11T15:48:11.416Z,98025.41
2023-03-11T15:49:13.861Z,98010.66
2023-03-11T15:50:26.010Z,98021.38
2023-03-11T15:51:30.429Z,98021.09
2023-03-11T15:52:32.230Z,98015.72
2023-03-11T15:53:34.183Z,98020.56
2023-03-11T15:54:36.454Z,98016.53
2023-03-11T15:55:39.673Z,98018.41
2023-03-11T15:56:42.321Z,98016.00
2023-03-11T15:57:45.298Z,98021.09
2023-03-11T15:58:47.107Z,98018.41
2023-03-11T15:59:51.546Z,98020.56
2023-03-11T16:00:57.271Z,98017.06
2023-03-11T16:01:59.560Z,98010.66
2023-03-11T16:03:01.686Z,98014.38
2023-03-11T16:04:03.600Z,98009.03
2023-03-11T16:05:13.968Z,98014.38
2023-03-11T16:06:15.870Z,98006.09
2023-03-11T16:07:21.792Z,98011.44
2023-03-11T16:08:31.389Z,98004.50
2023-03-11T16:09:34.209Z,98003.13
2023-03-11T16:10:36.758Z,98000.97
2023-03-11T16:11:40.339Z,98003.66
2023-03-11T16:12:42.582Z,98006.09
2023-03-11T16:13:44.483Z,98012.53
2023-03-11T16:14:48.205Z,98009.84
2023-03-11T16:15:49.989Z,98010.91
2023-03-11T16:16:51.769Z,98017.88
2023-03-11T16:17:56.951Z,98018.41
2023-03-11T16:18:58.855Z,98019.75
2023-03-11T16:20:00.656Z,98016.25
2023-03-11T16:21:08.595Z,98017.88
2023-03-11T16:22:31.059Z,98020.56
2023-03-11T16:23:50.653Z,98018.94
2023-03-11T16:24:54.458Z,98023.78
2023-03-11T16:26:02.072Z,98025.94
2023-03-11T16:27:04.172Z,98017.63
2023-03-11T16:28:06.877Z,98027.53
2023-03-11T16:29:18.968Z,98016.81
2023-03-11T16:30:23.311Z,98017.88
2023-03-11T16:31:25.690Z,98024.06
2023-03-11T16:32:27.556Z,98024.84
2023-03-11T16:33:29.593Z,98024.06
2023-03-11T16:34:31.666Z,98029.41
2023-03-11T16:35:34.422Z,98025.13
2023-03-11T16:36:36.355Z,98024.59
2023-03-11T16:37:39.720Z,98024.88
2023-03-11T16:38:50.272Z,98031.84
2023-03-11T16:39:52.760Z,98029.16
2023-03-11T16:41:00.325Z,98023.53
2023-03-11T16:42:02.411Z,98025.97
2023-03-11T16:43:09.863Z,98031.03
2023-03-11T16:44:12.290Z,98029.16
2023-03-11T16:45:17.460Z,98027.56
2023-03-11T16:46:19.369Z,98033.41
2023-03-11T16:47:21.357Z,98029.69
2023-03-11T16:48:24.365Z,98040.16
2023-03-11T16:49:26.153Z,98037.47
2023-03-11T16:50:28.565Z,98038.56
2023-03-11T16:51:30.441Z,98043.63
2023-03-11T16:52:32.469Z,98044.44
2023-03-11T16:53:34.401Z,98047.91
2023-03-11T16:54:36.206Z,98041.75
2023-03-11T16:55:37.961Z,98046.31
2023-03-11T16:56:41.748Z,98049.78
2023-03-11T16:57:43.758Z,98051.13
2023-03-11T16:58:48.252Z,98057.56
2023-03-11T16:59:50.297Z,98056.75
2023-03-11T17:00:52.586Z,98061.03
2023-03-11T17:01:54.405Z,98063.72
2023-03-11T17:02:56.230Z,98066.94
2023-03-11T17:03:57.984Z,98069.88
2023-03-11T17:04:59.932Z,98067.19
2023-03-11T17:06:03.916Z,98075.25
2023-03-11T17:07:07.474Z,98073.63
2023-03-11T17:08:10.927Z,98074.44
2023-03-11T17:09:12.817Z,98072.56
2023-03-11T17:10:14.706Z,98076.31
2023-03-11T17:11:20.052Z,98073.63
2023-03-11T17:12:23.104Z,98075.25
2023-03-11T17:13:24.926Z,98076.03
2023-03-11T17:14:26.980Z,98076.03
2023-03-11T17:15:28.822Z,98076.84
2023-03-11T17:16:33.602Z,98079.25
2023-03-11T17:17:36.767Z,98076.84
2023-03-11T17:18:38.845Z,98080.31
2023-03-11T17:19:40.719Z,98087.56
2023-03-11T17:20:43.620Z,98084.06
2023-03-11T17:21:45.481Z,98089.69
2023-03-11T17:22:47.290Z,98091.56
2023-03-11T17:23:49.148Z,98096.66
2023-03-11T17:24:50.940Z,98095.84
2023-03-11T17:25:52.793Z,98094.53
2023-03-11T17:26:54.578Z,98098.00
2023-03-11T17:27:57.458Z,98097.19
2023-03-11T17:28:59.725Z,98105.78
2023-03-11T17:30:04.285Z,98103.38
2023-03-11T17:31:12.500Z,98104.16
2023-03-11T17:32:17.465Z,98099.59
2023-03-11T17:33:19.570Z,98102.28
2023-03-11T17:34:22.284Z,98115.41
2023-03-11T17:35:24.207Z,98108.44
2023-03-11T17:36:26.182Z,98103.66
2023-03-11T17:37:28.459Z,98107.66
2023-03-11T17:38:30.456Z,98108.44
2023-03-11T17:39:32.322Z,98104.69
2023-03-11T17:40:34.238Z,98109.78
2023-03-11T17:41:36.110Z,98118.09
2023-03-11T17:42:39.664Z,98112.22
2023-03-11T17:43:43.067Z,98114.63
2023-03-11T17:44:51.526Z,98120.78
2023-03-11T17:45:54.033Z,98118.09
2023-03-11T17:46:55.920Z,98115.41
2023-03-11T17:47:57.798Z,98118.38
2023-03-11T17:48:59.986Z,98115.69
2023-03-11T17:50:02.946Z,98117.56
2023-03-11T17:51:10.828Z,98123.47
2023-03-11T17:52:13.049Z,98117.28
2023-03-11T17:53:14.876Z,98130.69
2023-03-11T17:54:16.703Z,98117.56
2023-03-11T17:55:18.668Z,98125.34
2023-03-11T17:56:22.298Z,98131.78
2023-03-11T17:57:24.175Z,98131.78
2023-03-11T17:58:26.067Z,98134.44
2023-03-11T17:59:27.911Z,98132.56
2023-03-11T18:00:29.841Z,98138.75
2023-03-11T18:01:31.874Z,98133.66
2023-03-11T18:02:33.994Z,98140.09
2023-03-11T18:03:35.885Z,98143.56
2023-03-11T18:04:39.053Z,98141.16
2023-03-11T18:05:40.951Z,98143.56
2023-03-11T18:06:43.317Z,98143.84
2023-03-11T18:07:45.232Z,98145.44
2023-03-11T18:08:47.211Z,98143.00
2023-03-11T18:09:55.098Z,98141.16
2023-03-11T18:11:03.033Z,98151.88
2023-03-11T18:12:06.579Z,98143.84
2023-03-11T18:13:08.487Z,98149.19
2023-03-11T18:14:11.437Z,98154.56
2023-03-11T18:15:18.883Z,98150.25
2023-03-11T18:16:28.819Z,98144.09
2023-03-11T18:17:30.789Z,98156.16
2023-03-11T18:18:34.367Z,98149.44
2023-03-11T18:19:36.202Z,98154.00
2023-03-11T18:20:38.810Z,98156.69
2023-03-11T18:21:40.606Z,98152.13
2023-03-11T18:22:46.750Z,98163.13
2023-03-11T18:23:52.408Z,98160.44
2023-03-11T18:24:54.441Z,98167.41
2023-03-11T18:25:56.291Z,98161.25
2023-03-11T18:26:58.204Z,98162.03
2023-03-11T18:28:00.125Z,98163.91
2023-03-11T18:29:02.296Z,98167.69
2023-03-11T18:30:11.219Z,98164.19
2023-03-11T18:31:18.485Z,98169.28
2023-03-11T18:32:20.923Z,98163.13
2023-03-11T18:33:25.049Z,98164.19
2023-03-11T18:34:26.820Z,98165.81
2023-03-11T18:35:29.168Z,98164.72
2023-03-11T18:36:37.567Z,98173.03
2023-03-11T18:37:40.318Z,98173.84
2023-03-11T18:38:42.933Z,98172.22
2023-03-11T18:39:44.792Z,98176.25
2023-03-11T18:40:46.621Z,98173.31
2023-03-11T18:41:48.472Z,98179.22
2023-03-11T18:42:52.775Z,98180.00
2023-03-11T18:43:59.525Z,98173.56
2023-03-11T18:45:01.527Z,98173.56
2023-03-11T18:46:13.423Z,98169.28
2023-03-11T18:47:15.328Z,98171.69
2023-03-11T18:48:17.091Z,98177.03
2023-03-11T18:49:18.936Z,98182.16
2023-03-11T18:50:21.364Z,98183.22
2023-03-11T18:51:24.256Z,98178.38
2023-03-11T18:52:26.137Z,98180.28
2023-03-11T18:53:28.125Z,98179.19
2023-03-11T18:54:30.005Z,98179.75
2023-03-11T18:55:35.568Z,98180.81
2023-03-11T18:56:37.393Z,98179.19
2023-03-11T18:57:41.790Z,98181.34
2023-03-11T18:58:44.548Z,98177.88
2023-03-11T18:59:49.969Z,98177.59
2023-03-11T19:00:51.914Z,98184.03
2023-03-11T19:01:54.039Z,98182.69
2023-03-11T19:02:55.857Z,98183.22
2023-03-11T19:03:59.979Z,98185.63
2023-03-11T19:05:02.159Z,98188.84
2023-03-11T19:06:04.738Z,98179.22
2023-03-11T19:07:06.576Z,98189.66
2023-03-11T19:08:08.464Z,98189.13
2023-03-11T19:09:10.975Z,98186.44
2023-03-11T19:10:15.295Z,98184.84
2023-03-11T19:11:23.127Z,98192.88
2023-03-11T19:12:29.177Z,98185.91
2023-03-11T19:13:45.649Z,98190.47
2023-03-11T19:14:48.351Z,98199.84
2023-03-11T19:15:50.432Z,98197.44
2023-03-11T19:16:52.374Z,98199.03
2023-03-11T19:18:05.935Z,98189.38
2023-03-11T19:19:11.607Z,98193.94
2023-03-11T19:20:13.819Z,98197.69
2023-03-11T19:21:16.668Z,98201.44
2023-03-11T19:22:18.561Z,98197.69
2023-03-11T19:23:20.449Z,98201.44
2023-03-11T19:24:22.250Z,98203.84
2023-03-11T19:25:27.795Z,98210.81
2023-03-11T19:26:43.887Z,98208.41
2023-03-11T19:27:46.786Z,98201.44
2023-03-11T19:28:49.013Z,98205.75
2023-03-11T19:29:50.825Z,98212.97
2023-03-11T19:30:58.978Z,98212.16
2023-03-11T19:32:03.010Z,98208.41
2023-03-11T19:33:05.386Z,98210.28
2023-03-11T19:34:07.334Z,98211.38
2023-03-11T19:35:13.556Z,98214.06
2023-03-11T19:36:15.704Z,98215.13
2023-03-11T19:37:17.524Z,98215.13
2023-03-11T19:38:21.088Z,98217.81
2023-03-11T19:39:22.969Z,98209.50
2023-03-11T19:40:29.664Z,98210.03
2023-03-11T19:41:31.528Z,98216.19
2023-03-11T19:42:34.278Z,98217.25
2023-03-11T19:43:36.858Z,98214.81
2023-03-11T19:44:38.837Z,98222.03
2023-03-11T19:45:40.868Z,98223.91
2023-03-11T19:46:42.749Z,98213.47
2023-03-11T19:47:46.497Z,98203.03
2023-03-11T19:48:48.521Z,98213.75
2023-03-11T19:49:50.442Z,98220.97
2023-03-11T19:50:53.086Z,98227.41
2023-03-11T19:51:55.976Z,98222.06
2023-03-11T19:52:57.873Z,98227.41
2023-03-11T19:53:59.865Z,98223.13
2023-03-11T19:55:02.023Z,98226.06
2023-03-11T19:56:04.829Z,98219.09
2023-03-11T19:57:06.728Z,98227.94
2023-03-11T19:58:08.639Z,98221.75
2023-03-11T19:59:10.771Z,98231.66
2023-03-11T20:00:13.751Z,98235.16
2023-03-11T20:01:21.070Z,98234.63
2023-03-11T20:02:22.948Z,98231.94
2023-03-11T20:03:26.518Z,98234.34
2023-03-11T20:04:28.922Z,98233.81
2023-03-11T20:05:31.283Z,98235.97
2023-03-11T20:06:33.403Z,98235.69
2023-03-11T20:07:35.265Z,98235.69
2023-03-11T20:08:37.743Z,98239.72
2023-03-11T20:09:39.654Z,98238.41
2023-03-11T20:10:45.285Z,98229.78
2023-03-11T20:11:47.880Z,98241.34
2023-03-11T20:13:01.837Z,98249.38
2023-03-11T20:14:06.367Z,98243.19
2023-03-11T20:15:08.846Z,98243.19
2023-03-11T20:16:18.929Z,98252.06
2023-03-11T20:17:21.059Z,98252.88
2023-03-11T20:18:23.147Z,98245.63
2023-03-11T20:19:25.053Z,98255.53
2023-03-11T20:20:31.304Z,98257.41
2023-03-11T20:21:33.316Z,98252.31
2023-03-11T20:22:35.205Z,98246.94
2023-03-11T20:23:38.575Z,98255.78
2023-03-11T20:24:40.543Z,98252.31
2023-03-11T20:25:42.543Z,98249.38
2023-03-11T20:26:44.798Z,98244.81
2023-03-11T20:27:46.909Z,98244.81
2023-03-11T20:28:49.306Z,98244.03
2023-03-11T20:29:51.737Z,98255.28
2023-03-11T20:30:54.381Z,98257.94
2023-03-11T20:31:56.406Z,98257.16
2023-03-11T20:32:58.383Z,98251.78
2023-03-11T20:34:01.001Z,98251.00
2023-03-11T20:35:04.083Z,98260.63
2023-03-11T20:36:12.926Z,98257.16
2023-03-11T20:37:14.869Z,98256.88
2023-03-11T20:38:17.804Z,98251.78
2023-03-11T20:39:19.668Z,98256.06
2023-03-11T20:40:21.886Z,98262.50
2023-03-11T20:41:26.499Z,98256.34
2023-03-11T20:42:28.356Z,98265.19
2023-03-11T20:43:30.230Z,98263.31
2023-03-11T20:44:32.183Z,98260.34
2023-03-11T20:45:34.109Z,98258.75
2023-03-11T20:46:36.063Z,98259.81
2023-03-11T20:47:38.047Z,98264.13
2023-03-11T20:48:40.586Z,98263.31
2023-03-11T20:49:43.939Z,98266.25
2023-03-11T20:50:45.797Z,98265.72
2023-03-11T20:51:48.193Z,98274.81
2023-03-11T20:52:50.698Z,98270.28
2023-03-11T20:53:52.784Z,98278.84
2023-03-11T20:54:54.675Z,98276.16
2023-03-11T20:55:59.192Z,98275.38
2023-03-11T20:57:01.259Z,98278.31
2023-03-11T20:58:03.142Z,98282.59
2023-03-11T20:59:07.449Z,98276.44
2023-03-11T21:00:12.409Z,98276.72
2023-03-11T21:01:22.265Z,98277.25
2023-03-11T21:02:24.229Z,98279.13
2023-03-11T21:03:26.340Z,98282.59
2023-03-11T21:04:28.226Z,98279.13
2023-03-11T21:05:34.721Z,98280.19
2023-03-11T21:06:40.701Z,98280.19
2023-03-11T21:07:42.682Z,98281.00
2023-03-11T21:08:45.161Z,98283.13
2023-03-11T21:09:48.182Z,98281.25
2023-03-11T21:10:50.116Z,98288.22
2023-03-11T21:11:52.017Z,98282.34
2023-03-11T21:12:54.243Z,98282.56
2023-03-11T21:13:56.729Z,98287.94
2023-03-11T21:14:58.636Z,98285.00
2023-03-11T21:16:00.633Z,98291.69
2023-03-11T21:17:02.504Z,98285.25
2023-03-11T21:18:06.190Z,98284.44
2023-03-11T21:19:10.056Z,98285.25
2023-03-11T21:20:12.843Z,98284.44
2023-03-11T21:21:18.209Z,98279.09
2023-03-11T21:22:20.695Z,98284.22
2023-03-11T21:23:23.294Z,98283.38
2023-03-11T21:24:25.810Z,98284.22
2023-03-11T21:25:30.621Z,98280.69
2023-03-11T21:26:33.220Z,98292.25
2023-03-11T21:27:35.519Z,98285.25
2023-03-11T21:28:42.400Z,98276.69
2023-03-11T21:29:45.023Z,98283.38
2023-03-11T21:30:46.840Z,98278.03
2023-03-11T21:31:48.815Z,98277.22
2023-03-11T21:32:50.804Z,98281.53
2023-03-11T21:33:55.451Z,98294.38
2023-03-11T21:34:59.872Z,98280.97
2023-03-11T21:36:01.822Z,98281.78
2023-03-11T21:37:03.843Z,98290.38
2023-03-11T21:38:05.761Z,98283.66
2023-03-11T21:39:07.845Z,98277.22
2023-03-11T21:40:10.915Z,98284.22
2023-03-11T21:41:25.981Z,98287.94
2023-03-11T21:42:29.960Z,98286.06
2023-03-11T21:43:31.919Z,98282.84
2023-03-11T21:44:34.023Z,98287.13
2023-03-11T21:45:36.010Z,98282.03
2023-03-11T21:46:38.071Z,98289.28
2023-03-11T21:47:40.017Z,98288.19
2023-03-11T21:48:42.821Z,98288.19
2023-03-11T21:49:44.900Z,98285.53
2023-03-11T21:50:48.438Z,98287.41
2023-03-11T21:51:50.449Z,98289.53
2023-03-11T21:52:52.265Z,98289.53
2023-03-11T21:53:54.308Z,98286.31
2023-03-11T21:54:56.550Z,98287.44
2023-03-11T21:55:59.703Z,98283.38
2023-03-11T21:57:01.603Z,98282.84
2023-03-11T21:58:03.465Z,98292.75
2023-03-11T21:59:05.665Z,98287.41
2023-03-11T22:00:09.858Z,98289.00
2023-03-11T22:01:12.080Z,98288.19
2023-03-11T22:02:16.832Z,98286.59
2023-03-11T22:03:19.054Z,98287.41
2023-03-11T22:04:21.144Z,98287.41
2023-03-11T22:05:23.270Z,98282.03
2023-03-11T22:06:25.405Z,98283.09
2023-03-11T22:07:27.286Z,98282.31
2023-03-11T22:08:29.965Z,98281.22
2023-03-11T22:09:31.919Z,98285.78
2023-03-11T22:10:33.805Z,98284.19
2023-03-11T22:11:35.983Z,98285.78
2023-03-11T22:12:37.900Z,98293.81
2023-03-11T22:13:40.037Z,98284.19
2023-03-11T22:14:42.036Z,98289.53
2023-03-11T22:15:44.182Z,98285.78
2023-03-11T22:16:46.202Z,98281.50
2023-03-11T22:17:48.150Z,98288.47
2023-03-11T22:18:51.419Z,98290.88
2023-03-11T22:19:53.311Z,98289.28
2023-03-11T22:20:59.353Z,98293.28
2023-03-11T22:22:01.511Z,98289.00
2023-03-11T22:23:03.441Z,98293.81
2023-03-11T22:24:06.056Z,98290.88
2023-03-11T22:25:08.738Z,98290.06
2023-03-11T22:26:11.258Z,98290.06
2023-03-11T22:27:13.106Z,98291.94
2023-03-11T22:28:14.920Z,98285.53
2023-03-11T22:29:16.745Z,98287.41
2023-03-11T22:30:18.732Z,98287.13
2023-03-11T22:31:20.676Z,98286.31
2023-03-11T22:32:22.741Z,98291.94
2023-03-11T22:33:24.954Z,98284.72
2023-03-11T22:34:26.861Z,98284.44
2023-03-11T22:35:28.619Z,98285.25
2023-03-11T22:36:30.464Z,98285.53
2023-03-11T22:37:32.318Z,98279.63
2023-03-11T22:38:34.307Z,98283.91
2023-03-11T22:39:36.147Z,98282.31
2023-03-11T22:40:37.983Z,98280.44
2023-03-11T22:41:39.875Z,98278.03
2023-03-11T22:42:41.671Z,98270.00
2023-03-11T22:43:43.538Z,98272.41
2023-03-11T22:44:45.649Z,98273.47
2023-03-11T22:45:47.828Z,98275.34
2023-03-11T22:46:49.604Z,98273.75
2023-03-11T22:47:53.070Z,98272.13
2023-03-11T22:48:54.981Z,98280.69
2023-03-11T22:49:56.838Z,98272.66
2023-03-11T22:50:58.877Z,98285.78
2023-03-11T22:52:00.719Z,98276.94
2023-03-11T22:53:02.526Z,98276.69
2023-03-11T22:54:04.472Z,98281.25
2023-03-11T22:55:06.687Z,98277.75
2023-03-11T22:56:12.909Z,98278.56
2023-03-11T22:57:14.809Z,98288.75
2023-03-11T22:58:17.009Z,98290.34
2023-03-11T22:59:18.796Z,98283.66
2023-03-11T23:00:23.448Z,98279.38
2023-03-11T23:01:25.531Z,98275.63
2023-03-11T23:02:28.056Z,98286.31
2023-03-11T23:03:32.852Z,98287.41
2023-03-11T23:04:34.782Z,98290.09
2023-03-11T23:05:41.821Z,98293.03
2023-03-11T23:06:43.961Z,98293.84
2023-03-11T23:07:45.790Z,98294.91
2023-03-11T23:08:48.630Z,98299.19
2023-03-11T23:09:50.419Z,98289.53
2023-03-11T23:10:52.387Z,98293.03
2023-03-11T23:11:54.325Z,98295.72
2023-03-11T23:12:56.091Z,98302.94
2023-03-11T23:13:58.012Z,98294.91
2023-03-11T23:14:59.821Z,98293.84
2023-03-11T23:16:16.404Z,98298.66
2023-03-11T23:17:18.141Z,98300.78
2023-03-11T23:18:20.039Z,98296.50
2023-03-11T23:19:21.874Z,98299.19
2023-03-11T23:20:23.758Z,98294.91
2023-03-11T23:21:30.734Z,98289.53
2023-03-11T23:22:36.628Z,98297.81
2023-03-11T23:23:38.442Z,98293.28
2023-03-11T23:24:40.265Z,98298.38
2023-03-11T23:25:42.106Z,98293.03
2023-03-11T23:26:43.923Z,98298.38
2023-03-11T23:27:46.957Z,98290.63
2023-03-11T23:28:51.025Z,98295.97
2023-03-11T23:29:52.952Z,98294.09
2023-03-11T23:30:54.755Z,98301.88
2023-03-11T23:31:57.165Z,98294.63
2023-03-11T23:33:00.081Z,98296.50
2023-03-11T23:34:01.952Z,98298.38
2023-03-11T23:35:04.699Z,98295.72
2023-03-11T23:36:14.907Z,98296.50
2023-03-11T23:37:16.930Z,98296.50
2023-03-11T23:38:18.762Z,98293.03
2023-03-11T23:39:20.528Z,98298.38
2023-03-11T23:40:22.410Z,98288.47
2023-03-11T23:41:24.290Z,98297.31
2023-03-11T23:42:26.590Z,98298.38
2023-03-11T23:43:28.530Z,98295.72
2023-03-11T23:44:30.445Z,98298.38
2023-03-11T23:45:32.242Z,98291.97
2023-03-11T23:46:34.104Z,98299.72
2023-03-11T23:47:36.364Z,98297.03
2023-03-11T23:48:38.633Z,98294.63
2023-03-11T23:49:40.514Z,98293.84
2023-03-11T23:50:47.705Z,98296.78
2023-03-11T23:51:49.591Z,98290.88
2023-03-11T23:52:51.468Z,98293.28
2023-03-11T23:53:53.462Z,98292.22
2023-03-11T23:54:55.678Z,98294.38
2023-03-11T23:55:57.574Z,98297.03
2023-03-11T23:56:59.393Z,98295.44
2023-03-11T23:58:01.472Z,98294.63
2023-03-11T23:59:03.618Z,98293.84
